RJKI(METAR)
08/15 04:00
METAR RJKI 141900Z AUTO 15003KT 9999 FEW016 26/25 Q1010 RMK A2985=
戻る
トップページへ戻る
IMOC Co,.Ltd.